sensor_id;sensor_type;location;lat;lon;timestamp;pressure;altitude;pressure_sealevel;temperature;humidity
22333;BME280;11334;36.986;-121.936;2022-11-15T00:02:07;101458.25;;;16.15;48.38
22333;BME280;11334;36.986;-121.936;2022-11-15T00:04:34;101459.28;;;16.14;49.18
22333;BME280;11334;36.986;-121.936;2022-11-15T00:07:00;101454.06;;;16.13;49.56
22333;BME280;11334;36.986;-121.936;2022-11-15T00:09:26;101455.06;;;16.12;50.30
22333;BME280;11334;36.986;-121.936;2022-11-15T00:11:52;101458.94;;;16.10;50.98
22333;BME280;11334;36.986;-121.936;2022-11-15T00:14:18;101458.25;;;16.08;51.44
22333;BME280;11334;36.986;-121.936;2022-11-15T00:16:45;101462.94;;;16.06;52.08
22333;BME280;11334;36.986;-121.936;2022-11-15T00:19:11;101450.75;;;16.03;52.70
22333;BME280;11334;36.986;-121.936;2022-11-15T00:21:37;101460.97;;;16.00;53.10
22333;BME280;11334;36.986;-121.936;2022-11-15T00:24:04;101454.13;;;15.97;53.77
22333;BME280;11334;36.986;-121.936;2022-11-15T00:26:30;101460.00;;;15.93;54.10
22333;BME280;11334;36.986;-121.936;2022-11-15T00:28:56;101468.38;;;15.90;54.27
22333;BME280;11334;36.986;-121.936;2022-11-15T00:31:22;101461.88;;;15.84;54.52
22333;BME280;11334;36.986;-121.936;2022-11-15T00:33:49;101458.69;;;15.81;54.99
22333;BME280;11334;36.986;-121.936;2022-11-15T00:36:15;101463.56;;;15.78;55.54
22333;BME280;11334;36.986;-121.936;2022-11-15T00:38:41;101452.72;;;15.71;55.68
22333;BME280;11334;36.986;-121.936;2022-11-15T00:41:08;101461.28;;;15.67;55.72
22333;BME280;11334;36.986;-121.936;2022-11-15T00:43:34;101469.81;;;15.62;56.04
22333;BME280;11334;36.986;-121.936;2022-11-15T00:46:00;101470.47;;;15.56;56.30
22333;BME280;11334;36.986;-121.936;2022-11-15T00:48:28;101470.16;;;15.51;56.46
22333;BME280;11334;36.986;-121.936;2022-11-15T00:50:54;101474.53;;;15.45;56.72
22333;BME280;11334;36.986;-121.936;2022-11-15T00:53:21;101473.34;;;15.39;56.94
22333;BME280;11334;36.986;-121.936;2022-11-15T00:55:47;101480.19;;;15.34;57.48
22333;BME280;11334;36.986;-121.936;2022-11-15T00:58:13;101475.53;;;15.28;57.54
22333;BME280;11334;36.986;-121.936;2022-11-15T01:00:39;101472.72;;;15.21;57.81
22333;BME280;11334;36.986;-121.936;2022-11-15T01:03:05;101465.06;;;15.11;58.05
22333;BME280;11334;36.986;-121.936;2022-11-15T01:05:31;101477.69;;;15.09;57.89
22333;BME280;11334;36.986;-121.936;2022-11-15T01:07:58;101480.38;;;15.01;57.89
22333;BME280;11334;36.986;-121.936;2022-11-15T01:10:24;101476.53;;;14.95;58.04
22333;BME280;11334;36.986;-121.936;2022-11-15T01:12:51;101466.69;;;14.88;58.05
22333;BME280;11334;36.986;-121.936;2022-11-15T01:15:18;101470.53;;;14.78;58.06
22333;BME280;11334;36.986;-121.936;2022-11-15T01:17:44;101470.34;;;14.71;58.40
22333;BME280;11334;36.986;-121.936;2022-11-15T01:20:10;101478.16;;;14.65;58.54
22333;BME280;11334;36.986;-121.936;2022-11-15T01:22:37;101483.97;;;14.52;58.72
22333;BME280;11334;36.986;-121.936;2022-11-15T01:25:03;101491.63;;;14.48;58.90
22333;BME280;11334;36.986;-121.936;2022-11-15T01:27:29;101487.97;;;14.41;58.76
22333;BME280;11334;36.986;-121.936;2022-11-15T01:29:55;101488.94;;;14.32;59.09
22333;BME280;11334;36.986;-121.936;2022-11-15T01:32:22;101492.41;;;14.24;59.23
22333;BME280;11334;36.986;-121.936;2022-11-15T01:34:48;101498.41;;;14.19;59.56
22333;BME280;11334;36.986;-121.936;2022-11-15T01:37:14;101499.84;;;14.13;59.54
22333;BME280;11334;36.986;-121.936;2022-11-15T01:39:40;101507.19;;;14.11;59.09
22333;BME280;11334;36.986;-121.936;2022-11-15T01:42:12;101509.81;;;14.03;59.33
22333;BME280;11334;36.986;-121.936;2022-11-15T01:44:51;101504.25;;;13.97;59.49
22333;BME280;11334;36.986;-121.936;2022-11-15T01:47:26;101512.38;;;13.88;59.65
22333;BME280;11334;36.986;-121.936;2022-11-15T01:50:09;101512.34;;;13.80;59.49
22333;BME280;11334;36.986;-121.936;2022-11-15T01:52:38;101504.91;;;13.66;59.70
22333;BME280;11334;36.986;-121.936;2022-11-15T01:55:10;101512.25;;;13.64;60.16
22333;BME280;11334;36.986;-121.936;2022-11-15T01:57:38;101516.53;;;13.57;59.97
22333;BME280;11334;36.986;-121.936;2022-11-15T02:00:07;101515.63;;;13.49;60.55
22333;BME280;11334;36.986;-121.936;2022-11-15T02:02:34;101509.09;;;13.43;60.18
22333;BME280;11334;36.986;-121.936;2022-11-15T02:05:02;101524.94;;;13.45;60.16
22333;BME280;11334;36.986;-121.936;2022-11-15T02:07:29;101524.25;;;13.43;59.89
22333;BME280;11334;36.986;-121.936;2022-11-15T02:10:04;101530.84;;;13.39;60.36
22333;BME280;11334;36.986;-121.936;2022-11-15T02:12:32;101538.66;;;13.32;60.78
22333;BME280;11334;36.986;-121.936;2022-11-15T02:14:59;101537.06;;;13.22;60.82
22333;BME280;11334;36.986;-121.936;2022-11-15T02:27:58;101549.09;;;12.92;62.14
22333;BME280;11334;36.986;-121.936;2022-11-15T02:31:03;101539.91;;;12.86;61.70
22333;BME280;11334;36.986;-121.936;2022-11-15T02:34:05;101546.56;;;12.73;62.07
22333;BME280;11334;36.986;-121.936;2022-11-15T02:36:36;101550.50;;;12.69;62.20
22333;BME280;11334;36.986;-121.936;2022-11-15T02:41:54;101558.78;;;12.66;61.72
22333;BME280;11334;36.986;-121.936;2022-11-15T02:44:26;101553.56;;;12.47;62.69
22333;BME280;11334;36.986;-121.936;2022-11-15T02:46:59;101549.00;;;12.40;63.27
22333;BME280;11334;36.986;-121.936;2022-11-15T02:49:51;101548.47;;;12.36;63.37
22333;BME280;11334;36.986;-121.936;2022-11-15T02:52:21;101551.44;;;12.33;63.44
22333;BME280;11334;36.986;-121.936;2022-11-15T02:54:56;101537.50;;;12.22;63.07
22333;BME280;11334;36.986;-121.936;2022-11-15T02:57:32;101555.34;;;12.30;62.65
22333;BME280;11334;36.986;-121.936;2022-11-15T03:00:08;101560.19;;;12.17;63.14
22333;BME280;11334;36.986;-121.936;2022-11-15T03:08:07;101568.19;;;12.07;63.63
22333;BME280;11334;36.986;-121.936;2022-11-15T03:13:56;101565.28;;;12.01;63.62
22333;BME280;11334;36.986;-121.936;2022-11-15T03:19:31;101571.84;;;12.06;63.48
22333;BME280;11334;36.986;-121.936;2022-11-15T03:22:03;101572.22;;;12.11;63.12
22333;BME280;11334;36.986;-121.936;2022-11-15T03:24:35;101578.41;;;12.02;63.81
22333;BME280;11334;36.986;-121.936;2022-11-15T03:27:04;101577.59;;;11.93;63.58
22333;BME280;11334;36.986;-121.936;2022-11-15T03:29:39;101593.81;;;11.90;64.16
22333;BME280;11334;36.986;-121.936;2022-11-15T03:32:12;101594.94;;;11.87;63.94
22333;BME280;11334;36.986;-121.936;2022-11-15T03:34:59;101598.19;;;11.81;63.73
22333;BME280;11334;36.986;-121.936;2022-11-15T03:37:50;101604.75;;;11.77;64.11
22333;BME280;11334;36.986;-121.936;2022-11-15T03:40:22;101603.13;;;11.67;63.46
22333;BME280;11334;36.986;-121.936;2022-11-15T03:43:24;101609.53;;;11.65;63.89
22333;BME280;11334;36.986;-121.936;2022-11-15T03:46:02;101609.97;;;11.60;64.03
22333;BME280;11334;36.986;-121.936;2022-11-15T03:48:37;101605.78;;;11.58;63.77
22333;BME280;11334;36.986;-121.936;2022-11-15T03:51:06;101606.47;;;11.60;64.24
22333;BME280;11334;36.986;-121.936;2022-11-15T03:53:32;101616.97;;;11.52;64.08
22333;BME280;11334;36.986;-121.936;2022-11-15T03:55:58;101607.31;;;11.51;64.37
22333;BME280;11334;36.986;-121.936;2022-11-15T03:58:25;101610.81;;;11.51;64.37
22333;BME280;11334;36.986;-121.936;2022-11-15T04:00:51;101616.97;;;11.52;63.69
22333;BME280;11334;36.986;-121.936;2022-11-15T04:03:17;101619.75;;;11.41;64.23
22333;BME280;11334;36.986;-121.936;2022-11-15T04:05:43;101615.53;;;11.38;64.26
22333;BME280;11334;36.986;-121.936;2022-11-15T04:08:09;101619.59;;;11.33;65.16
22333;BME280;11334;36.986;-121.936;2022-11-15T04:10:36;101625.59;;;11.35;64.90
22333;BME280;11334;36.986;-121.936;2022-11-15T04:13:03;101619.03;;;11.30;65.07
22333;BME280;11334;36.986;-121.936;2022-11-15T04:15:29;101622.66;;;11.29;64.56
22333;BME280;11334;36.986;-121.936;2022-11-15T04:17:56;101629.38;;;11.23;64.99
22333;BME280;11334;36.986;-121.936;2022-11-15T04:20:27;101630.47;;;11.21;64.87
22333;BME280;11334;36.986;-121.936;2022-11-15T04:23:17;101631.47;;;11.10;65.57
22333;BME280;11334;36.986;-121.936;2022-11-15T04:26:10;101636.34;;;11.05;65.95
22333;BME280;11334;36.986;-121.936;2022-11-15T04:28:37;101637.34;;;11.04;65.63
22333;BME280;11334;36.986;-121.936;2022-11-15T04:31:22;101646.13;;;11.05;65.55
22333;BME280;11334;36.986;-121.936;2022-11-15T04:33:48;101651.25;;;11.06;65.87
22333;BME280;11334;36.986;-121.936;2022-11-15T04:36:14;101647.22;;;11.21;65.57
22333;BME280;11334;36.986;-121.936;2022-11-15T04:38:59;101647.81;;;11.25;65.03
22333;BME280;11334;36.986;-121.936;2022-11-15T04:41:25;101649.31;;;11.08;65.15
22333;BME280;11334;36.986;-121.936;2022-11-15T04:43:51;101648.88;;;11.03;65.90
22333;BME280;11334;36.986;-121.936;2022-11-15T04:46:18;101648.19;;;10.92;66.03
22333;BME280;11334;36.986;-121.936;2022-11-15T04:48:44;101653.34;;;10.94;65.75
22333;BME280;11334;36.986;-121.936;2022-11-15T04:51:10;101653.88;;;10.78;66.51
22333;BME280;11334;36.986;-121.936;2022-11-15T04:53:36;101654.69;;;10.79;66.41
22333;BME280;11334;36.986;-121.936;2022-11-15T04:56:02;101674.81;;;10.81;66.84
22333;BME280;11334;36.986;-121.936;2022-11-15T04:58:29;101666.81;;;10.72;67.02
22333;BME280;11334;36.986;-121.936;2022-11-15T05:00:55;101670.06;;;10.75;66.73
22333;BME280;11334;36.986;-121.936;2022-11-15T05:03:21;101661.75;;;10.60;67.29
22333;BME280;11334;36.986;-121.936;2022-11-15T05:06:06;101662.88;;;10.57;67.30
22333;BME280;11334;36.986;-121.936;2022-11-15T05:08:32;101664.41;;;10.50;67.52
22333;BME280;11334;36.986;-121.936;2022-11-15T05:10:58;101676.97;;;10.58;67.34
22333;BME280;11334;36.986;-121.936;2022-11-15T05:13:24;101675.88;;;10.60;67.23
22333;BME280;11334;36.986;-121.936;2022-11-15T05:15:51;101681.41;;;10.48;67.74
22333;BME280;11334;36.986;-121.936;2022-11-15T05:18:17;101683.91;;;10.49;67.65
22333;BME280;11334;36.986;-121.936;2022-11-15T05:20:43;101684.13;;;10.37;68.19
22333;BME280;11334;36.986;-121.936;2022-11-15T05:23:09;101688.53;;;10.27;68.75
22333;BME280;11334;36.986;-121.936;2022-11-15T05:25:36;101685.50;;;10.32;68.57
22333;BME280;11334;36.986;-121.936;2022-11-15T05:28:03;101684.72;;;10.41;68.13
22333;BME280;11334;36.986;-121.936;2022-11-15T05:30:30;101685.59;;;10.21;68.68
22333;BME280;11334;36.986;-121.936;2022-11-15T05:32:57;101685.97;;;10.16;69.48
22333;BME280;11334;36.986;-121.936;2022-11-15T05:35:50;101679.69;;;10.17;69.53
22333;BME280;11334;36.986;-121.936;2022-11-15T05:38:19;101685.25;;;10.14;69.78
22333;BME280;11334;36.986;-121.936;2022-11-15T05:40:45;101698.22;;;10.17;69.28
22333;BME280;11334;36.986;-121.936;2022-11-15T05:43:11;101699.47;;;10.13;69.20
22333;BME280;11334;36.986;-121.936;2022-11-15T05:45:38;101690.81;;;10.11;69.52
22333;BME280;11334;36.986;-121.936;2022-11-15T05:48:06;101701.06;;;10.25;68.62
22333;BME280;11334;36.986;-121.936;2022-11-15T05:50:35;101693.09;;;10.16;69.14
22333;BME280;11334;36.986;-121.936;2022-11-15T05:53:02;101696.75;;;10.24;68.87
22333;BME280;11334;36.986;-121.936;2022-11-15T05:55:29;101701.31;;;10.22;69.26
22333;BME280;11334;36.986;-121.936;2022-11-15T05:57:55;101702.78;;;10.06;69.05
22333;BME280;11334;36.986;-121.936;2022-11-15T06:00:21;101697.94;;;10.11;69.29
22333;BME280;11334;36.986;-121.936;2022-11-15T06:02:47;101698.97;;;9.99;69.78
22333;BME280;11334;36.986;-121.936;2022-11-15T06:05:14;101710.00;;;10.04;69.76
22333;BME280;11334;36.986;-121.936;2022-11-15T06:07:40;101692.69;;;10.00;69.82
22333;BME280;11334;36.986;-121.936;2022-11-15T06:10:07;101698.41;;;9.96;69.60
22333;BME280;11334;36.986;-121.936;2022-11-15T06:12:33;101693.56;;;10.01;69.44
22333;BME280;11334;36.986;-121.936;2022-11-15T06:14:59;101694.25;;;10.03;69.68
22333;BME280;11334;36.986;-121.936;2022-11-15T06:17:25;101692.69;;;10.00;69.78
22333;BME280;11334;36.986;-121.936;2022-11-15T06:19:51;101699.31;;;10.06;69.26
22333;BME280;11334;36.986;-121.936;2022-11-15T06:22:18;101688.72;;;10.06;69.25
22333;BME280;11334;36.986;-121.936;2022-11-15T06:24:44;101695.41;;;10.09;68.91
22333;BME280;11334;36.986;-121.936;2022-11-15T06:27:11;101687.63;;;10.08;68.32
22333;BME280;11334;36.986;-121.936;2022-11-15T06:29:37;101680.63;;;10.07;68.63
22333;BME280;11334;36.986;-121.936;2022-11-15T06:32:04;101692.69;;;10.00;68.48
22333;BME280;11334;36.986;-121.936;2022-11-15T06:34:30;101693.78;;;9.98;68.22
22333;BME280;11334;36.986;-121.936;2022-11-15T06:36:56;101694.88;;;9.95;68.04
22333;BME280;11334;36.986;-121.936;2022-11-15T06:39:22;101693.22;;;9.94;68.11
22333;BME280;11334;36.986;-121.936;2022-11-15T06:41:49;101691.94;;;9.89;68.50
22333;BME280;11334;36.986;-121.936;2022-11-15T06:44:15;101691.94;;;9.89;68.45
22333;BME280;11334;36.986;-121.936;2022-11-15T06:46:42;101689.53;;;9.86;68.24
22333;BME280;11334;36.986;-121.936;2022-11-15T06:49:08;101698.31;;;9.86;68.44
22333;BME280;11334;36.986;-121.936;2022-11-15T06:51:34;101697.97;;;9.80;68.56
22333;BME280;11334;36.986;-121.936;2022-11-15T06:54:00;101698.56;;;9.83;68.48
22333;BME280;11334;36.986;-121.936;2022-11-15T06:56:26;101693.31;;;9.73;68.85
22333;BME280;11334;36.986;-121.936;2022-11-15T06:58:53;101698.94;;;9.59;69.20
22333;BME280;11334;36.986;-121.936;2022-11-15T07:01:19;101701.16;;;9.63;69.05
22333;BME280;11334;36.986;-121.936;2022-11-15T07:03:45;101698.41;;;9.65;68.62
22333;BME280;11334;36.986;-121.936;2022-11-15T07:06:11;101701.31;;;9.62;68.91
22333;BME280;11334;36.986;-121.936;2022-11-15T07:08:38;101690.28;;;9.57;69.09
22333;BME280;11334;36.986;-121.936;2022-11-15T07:11:06;101689.38;;;9.47;69.67
22333;BME280;11334;36.986;-121.936;2022-11-15T07:13:36;101691.91;;;9.38;70.38
22333;BME280;11334;36.986;-121.936;2022-11-15T07:16:07;101693.00;;;9.35;70.63
22333;BME280;11334;36.986;-121.936;2022-11-15T07:18:35;101685.59;;;9.29;70.79
22333;BME280;11334;36.986;-121.936;2022-11-15T07:21:07;101685.66;;;9.39;69.96
22333;BME280;11334;36.986;-121.936;2022-11-15T07:23:36;101683.00;;;9.39;69.86
22333;BME280;11334;36.986;-121.936;2022-11-15T07:26:03;101680.25;;;9.40;69.57
22333;BME280;11334;36.986;-121.936;2022-11-15T07:28:30;101675.47;;;9.34;69.76
22333;BME280;11334;36.986;-121.936;2022-11-15T07:30:56;101672.84;;;9.34;69.78
22333;BME280;11334;36.986;-121.936;2022-11-15T07:33:22;101682.69;;;9.32;69.79
22333;BME280;11334;36.986;-121.936;2022-11-15T07:35:48;101682.94;;;9.29;70.30
22333;BME280;11334;36.986;-121.936;2022-11-15T07:38:15;101681.16;;;9.19;70.55
22333;BME280;11334;36.986;-121.936;2022-11-15T07:40:45;101679.94;;;9.23;70.58
22333;BME280;11334;36.986;-121.936;2022-11-15T07:43:12;101670.25;;;9.13;70.90
22333;BME280;11334;36.986;-121.936;2022-11-15T07:45:45;101673.63;;;9.14;71.05
22333;BME280;11334;36.986;-121.936;2022-11-15T07:48:11;101673.47;;;9.16;70.92
22333;BME280;11334;36.986;-121.936;2022-11-15T07:50:41;101670.78;;;8.96;71.40
22333;BME280;11334;36.986;-121.936;2022-11-15T07:53:08;101674.38;;;9.06;71.29
22333;BME280;11334;36.986;-121.936;2022-11-15T07:55:36;101681.09;;;9.10;71.30
22333;BME280;11334;36.986;-121.936;2022-11-15T07:58:04;101671.72;;;9.06;71.26
22333;BME280;11334;36.986;-121.936;2022-11-15T08:00:31;101688.31;;;9.08;71.04
22333;BME280;11334;36.986;-121.936;2022-11-15T08:05:32;101686.75;;;9.05;70.57
22333;BME280;11334;36.986;-121.936;2022-11-15T08:07:59;101683.38;;;9.03;70.76
22333;BME280;11334;36.986;-121.936;2022-11-15T08:10:26;101687.47;;;8.96;71.09
22333;BME280;11334;36.986;-121.936;2022-11-15T08:13:07;101691.94;;;8.96;71.30
22333;BME280;11334;36.986;-121.936;2022-11-15T08:15:35;101686.53;;;8.97;71.00
22333;BME280;11334;36.986;-121.936;2022-11-15T08:18:04;101680.16;;;8.89;71.06
22333;BME280;11334;36.986;-121.936;2022-11-15T08:20:32;101685.34;;;8.90;71.10
22333;BME280;11334;36.986;-121.936;2022-11-15T08:23:01;101673.56;;;8.83;71.30
22333;BME280;11334;36.986;-121.936;2022-11-15T08:25:29;101685.84;;;8.74;72.08
22333;BME280;11334;36.986;-121.936;2022-11-15T08:27:58;101684.28;;;8.82;71.68
22333;BME280;11334;36.986;-121.936;2022-11-15T08:30:25;101682.09;;;8.87;71.22
22333;BME280;11334;36.986;-121.936;2022-11-15T08:32:52;101687.38;;;8.87;70.78
22333;BME280;11334;36.986;-121.936;2022-11-15T08:35:20;101682.22;;;8.85;70.90
22333;BME280;11334;36.986;-121.936;2022-11-15T08:37:46;101687.19;;;8.68;71.87
22333;BME280;11334;36.986;-121.936;2022-11-15T08:40:13;101695.81;;;8.70;71.59
22333;BME280;11334;36.986;-121.936;2022-11-15T08:42:39;101682.72;;;8.69;71.18
22333;BME280;11334;36.986;-121.936;2022-11-15T08:45:07;101685.25;;;8.70;71.02
22333;BME280;11334;36.986;-121.936;2022-11-15T08:47:34;101696.06;;;8.56;71.89
22333;BME280;11334;36.986;-121.936;2022-11-15T08:50:00;101691.63;;;8.57;71.71
22333;BME280;11334;36.986;-121.936;2022-11-15T08:52:26;101677.00;;;8.53;71.38
22333;BME280;11334;36.986;-121.936;2022-11-15T08:54:53;101699.66;;;8.66;71.33
22333;BME280;11334;36.986;-121.936;2022-11-15T08:57:19;101704.22;;;8.64;71.23
22333;BME280;11334;36.986;-121.936;2022-11-15T08:59:45;101706.41;;;8.49;72.04
22333;BME280;11334;36.986;-121.936;2022-11-15T09:02:14;101697.28;;;8.42;72.28
22333;BME280;11334;36.986;-121.936;2022-11-15T09:04:42;101705.56;;;8.48;72.47
22333;BME280;11334;36.986;-121.936;2022-11-15T09:07:10;101706.50;;;8.47;72.11
22333;BME280;11334;36.986;-121.936;2022-11-15T09:09:37;101702.31;;;8.45;72.08
22333;BME280;11334;36.986;-121.936;2022-11-15T09:12:05;101702.56;;;8.42;72.84
22333;BME280;11334;36.986;-121.936;2022-11-15T09:14:31;101699.81;;;8.43;72.49
22333;BME280;11334;36.986;-121.936;2022-11-15T09:16:57;101698.00;;;8.44;72.00
22333;BME280;11334;36.986;-121.936;2022-11-15T09:19:24;101695.84;;;8.49;71.85
22333;BME280;11334;36.986;-121.936;2022-11-15T09:21:50;101696.31;;;8.43;72.01
22333;BME280;11334;36.986;-121.936;2022-11-15T09:24:16;101707.38;;;8.48;72.34
22333;BME280;11334;36.986;-121.936;2022-11-15T09:26:43;101703.53;;;8.41;72.26
22333;BME280;11334;36.986;-121.936;2022-11-15T09:29:10;101706.63;;;8.35;72.90
22333;BME280;11334;36.986;-121.936;2022-11-15T09:31:36;101705.31;;;8.40;72.62
22333;BME280;11334;36.986;-121.936;2022-11-15T09:34:02;101707.47;;;8.35;72.38
22333;BME280;11334;36.986;-121.936;2022-11-15T09:36:28;101704.94;;;8.34;72.72
22333;BME280;11334;36.986;-121.936;2022-11-15T09:38:56;101708.19;;;8.37;72.67
22333;BME280;11334;36.986;-121.936;2022-11-15T09:44:38;101699.28;;;8.27;73.01
22333;BME280;11334;36.986;-121.936;2022-11-15T09:47:22;101706.13;;;8.30;73.13
22333;BME280;11334;36.986;-121.936;2022-11-15T09:49:54;101697.25;;;8.20;73.70
22333;BME280;11334;36.986;-121.936;2022-11-15T09:52:23;101695.94;;;8.15;73.81
22333;BME280;11334;36.986;-121.936;2022-11-15T09:54:51;101701.69;;;8.19;74.44
22333;BME280;11334;36.986;-121.936;2022-11-15T09:57:30;101696.66;;;8.27;74.24
22333;BME280;11334;36.986;-121.936;2022-11-15T10:03:10;101697.38;;;8.19;74.51
22333;BME280;11334;36.986;-121.936;2022-11-15T10:05:40;101700.25;;;8.26;74.06
22333;BME280;11334;36.986;-121.936;2022-11-15T10:08:31;101692.25;;;8.28;73.39
22333;BME280;11334;36.986;-121.936;2022-11-15T10:11:27;101697.38;;;8.29;73.89
22333;BME280;11334;36.986;-121.936;2022-11-15T10:13:58;101688.75;;;8.27;73.46
22333;BME280;11334;36.986;-121.936;2022-11-15T10:16:34;101699.78;;;8.32;73.69
22333;BME280;11334;36.986;-121.936;2022-11-15T10:19:28;101700.03;;;8.29;73.82
22333;BME280;11334;36.986;-121.936;2022-11-15T10:24:45;101687.41;;;8.22;74.47
22333;BME280;11334;36.986;-121.936;2022-11-15T10:27:16;101684.91;;;8.20;74.61
22333;BME280;11334;36.986;-121.936;2022-11-15T10:29:45;101683.72;;;8.14;74.73
22333;BME280;11334;36.986;-121.936;2022-11-15T10:32:13;101687.97;;;8.04;75.53
22333;BME280;11334;36.986;-121.936;2022-11-15T10:34:40;101682.31;;;7.97;76.48
22333;BME280;11334;36.986;-121.936;2022-11-15T10:37:07;101687.28;;;8.13;76.00
22333;BME280;11334;36.986;-121.936;2022-11-15T10:39:34;101682.56;;;8.05;75.72
22333;BME280;11334;36.986;-121.936;2022-11-15T10:42:39;101677.28;;;8.05;76.07
22333;BME280;11334;36.986;-121.936;2022-11-15T10:45:24;101674.53;;;8.07;76.33
22333;BME280;11334;36.986;-121.936;2022-11-15T10:47:51;101677.69;;;8.12;76.47
22333;BME280;11334;36.986;-121.936;2022-11-15T10:50:31;101681.66;;;8.17;75.86
22333;BME280;11334;36.986;-121.936;2022-11-15T10:52:59;101669.88;;;8.10;75.79
22333;BME280;11334;36.986;-121.936;2022-11-15T10:55:30;101687.53;;;8.10;76.18
22333;BME280;11334;36.986;-121.936;2022-11-15T11:00:46;101692.94;;;8.19;75.28
22333;BME280;11334;36.986;-121.936;2022-11-15T11:03:35;101693.66;;;8.21;75.22
22333;BME280;11334;36.986;-121.936;2022-11-15T11:06:16;101689.81;;;8.14;75.27
22333;BME280;11334;36.986;-121.936;2022-11-15T11:09:03;101700.03;;;8.19;75.34
22333;BME280;11334;36.986;-121.936;2022-11-15T11:11:47;101699.59;;;8.01;76.38
22333;BME280;11334;36.986;-121.936;2022-11-15T11:14:30;101702.44;;;7.87;76.79
22333;BME280;11334;36.986;-121.936;2022-11-15T11:17:03;101707.47;;;7.90;77.17
22333;BME280;11334;36.986;-121.936;2022-11-15T11:19:53;101710.41;;;7.98;77.02
22333;BME280;11334;36.986;-121.936;2022-11-15T11:22:41;101707.84;;;7.86;76.95
22333;BME280;11334;36.986;-121.936;2022-11-15T11:31:24;101706.28;;;7.84;76.43
22333;BME280;11334;36.986;-121.936;2022-11-15T11:34:15;101714.66;;;7.78;77.43
22333;BME280;11334;36.986;-121.936;2022-11-15T11:39:54;101718.16;;;7.89;76.66
22333;BME280;11334;36.986;-121.936;2022-11-15T11:47:40;101723.09;;;7.93;76.37
22333;BME280;11334;36.986;-121.936;2022-11-15T11:50:24;101711.56;;;7.84;76.06
22333;BME280;11334;36.986;-121.936;2022-11-15T11:52:57;101717.78;;;7.83;76.68
22333;BME280;11334;36.986;-121.936;2022-11-15T11:58:14;101724.78;;;7.94;76.14
22333;BME280;11334;36.986;-121.936;2022-11-15T12:01:34;101716.94;;;7.82;76.00
22333;BME280;11334;36.986;-121.936;2022-11-15T12:03:38;101722.72;;;7.87;75.87
22333;BME280;11334;36.986;-121.936;2022-11-15T12:06:33;101722.13;;;7.84;76.64
22333;BME280;11334;36.986;-121.936;2022-11-15T12:09:12;101714.38;;;7.70;76.64
22333;BME280;11334;36.986;-121.936;2022-11-15T12:12:00;101728.84;;;7.54;77.24
22333;BME280;11334;36.986;-121.936;2022-11-15T12:17:00;101720.72;;;7.67;77.49
22333;BME280;11334;36.986;-121.936;2022-11-15T12:19:27;101717.53;;;7.75;76.71
22333;BME280;11334;36.986;-121.936;2022-11-15T12:22:02;101723.88;;;7.72;76.54
22333;BME280;11334;36.986;-121.936;2022-11-15T12:24:37;101716.28;;;7.68;76.29
22333;BME280;11334;36.986;-121.936;2022-11-15T12:27:18;101713.66;;;7.68;76.18
22333;BME280;11334;36.986;-121.936;2022-11-15T12:29:49;101723.44;;;7.55;76.58
22333;BME280;11334;36.986;-121.936;2022-11-15T12:34:46;101725.16;;;7.56;77.07
22333;BME280;11334;36.986;-121.936;2022-11-15T12:45:36;101727.66;;;7.57;77.61
22333;BME280;11334;36.986;-121.936;2022-11-15T12:51:01;101722.53;;;7.67;77.65
22333;BME280;11334;36.986;-121.936;2022-11-15T12:53:32;101724.94;;;7.70;76.41
22333;BME280;11334;36.986;-121.936;2022-11-15T12:58:52;101723.59;;;7.64;77.26
22333;BME280;11334;36.986;-121.936;2022-11-15T13:06:54;101744.09;;;7.38;77.74
22333;BME280;11334;36.986;-121.936;2022-11-15T13:17:22;101745.28;;;7.57;77.37
22333;BME280;11334;36.986;-121.936;2022-11-15T13:25:40;101751.91;;;7.39;77.67
22333;BME280;11334;36.986;-121.936;2022-11-15T13:33:20;101738.81;;;7.38;77.99
22333;BME280;11334;36.986;-121.936;2022-11-15T13:35:50;101742.78;;;7.43;77.13
22333;BME280;11334;36.986;-121.936;2022-11-15T13:38:26;101737.75;;;7.40;77.01
22333;BME280;11334;36.986;-121.936;2022-11-15T13:40:53;101744.59;;;7.43;76.68
22333;BME280;11334;36.986;-121.936;2022-11-15T13:48:59;101741.13;;;7.42;76.97
22333;BME280;11334;36.986;-121.936;2022-11-15T13:54:22;101739.88;;;7.35;77.12
22333;BME280;11334;36.986;-121.936;2022-11-15T13:59:30;101748.47;;;7.26;77.44
22333;BME280;11334;36.986;-121.936;2022-11-15T14:01:59;101743.91;;;7.28;77.64
22333;BME280;11334;36.986;-121.936;2022-11-15T14:04:28;101748.84;;;7.33;77.45
22333;BME280;11334;36.986;-121.936;2022-11-15T14:07:01;101754.91;;;7.23;77.21
22333;BME280;11334;36.986;-121.936;2022-11-15T14:09:39;101748.81;;;7.22;77.51
22333;BME280;11334;36.986;-121.936;2022-11-15T14:12:32;101750.72;;;7.20;78.44
22333;BME280;11334;36.986;-121.936;2022-11-15T14:15:00;101760.69;;;7.27;77.03
22333;BME280;11334;36.986;-121.936;2022-11-15T14:19:57;101757.56;;;7.23;77.03
22333;BME280;11334;36.986;-121.936;2022-11-15T14:22:25;101760.19;;;7.23;76.90
22333;BME280;11334;36.986;-121.936;2022-11-15T14:25:13;101763.97;;;7.19;76.63
22333;BME280;11334;36.986;-121.936;2022-11-15T14:27:43;101763.78;;;7.22;76.84
22333;BME280;11334;36.986;-121.936;2022-11-15T14:30:16;101760.97;;;7.12;77.09
22333;BME280;11334;36.986;-121.936;2022-11-15T14:32:48;101764.75;;;7.08;78.01
22333;BME280;11334;36.986;-121.936;2022-11-15T14:35:20;101767.84;;;7.02;77.20
22333;BME280;11334;36.986;-121.936;2022-11-15T14:37:47;101772.78;;;7.07;77.51